createdAt,value
2023-03-16T00:00:26.846Z,97909.21
2023-03-16T00:03:13.903Z,97909.25
2023-03-16T00:05:40.704Z,97911.63
2023-03-16T00:08:06.966Z,97912.66
2023-03-16T00:10:33.286Z,97914.40
2023-03-16T00:13:00.009Z,97919.16
2023-03-16T00:15:26.278Z,97919.73
2023-03-16T00:17:52.740Z,97922.33
2023-03-16T00:20:19.209Z,97922.17
2023-03-16T00:22:45.509Z,97924.42
2023-03-16T00:25:12.774Z,97927.54
2023-03-16T00:27:39.345Z,97927.39
2023-03-16T00:30:05.824Z,97930.98
2023-03-16T00:32:33.583Z,97931.38
2023-03-16T00:35:00.711Z,97932.41
2023-03-16T00:37:27.921Z,97930.41
2023-03-16T00:39:54.750Z,97931.41
2023-03-16T00:42:21.653Z,97936.33
2023-03-16T00:44:47.921Z,97936.02
2023-03-16T00:47:14.676Z,97936.05
2023-03-16T00:49:42.565Z,97939.82
2023-03-16T00:52:10.102Z,97938.66
2023-03-16T00:54:36.447Z,97943.45
2023-03-16T00:57:03.384Z,97943.65
2023-03-16T00:59:29.916Z,97943.70
2023-03-16T01:01:56.240Z,97941.18
2023-03-16T01:04:22.703Z,97941.23
2023-03-16T01:06:49.271Z,97940.08
2023-03-16T01:09:15.575Z,97939.78
2023-03-16T01:11:42.078Z,97939.68
2023-03-16T01:14:09.262Z,97938.20
2023-03-16T01:16:35.650Z,97941.80
2023-03-16T01:19:02.054Z,97945.59
2023-03-16T01:21:28.323Z,97948.36
2023-03-16T01:23:54.597Z,97949.27
2023-03-16T01:26:21.426Z,97956.75
2023-03-16T01:28:47.897Z,97958.67
2023-03-16T01:31:15.335Z,97956.34
2023-03-16T01:33:42.398Z,97959.10
2023-03-16T01:36:12.711Z,97958.13
2023-03-16T01:38:52.903Z,97961.40
2023-03-16T01:41:19.334Z,97963.14
2023-03-16T01:43:46.047Z,97966.79
2023-03-16T01:46:14.205Z,97963.11
2023-03-16T01:48:43.353Z,97964.31
2023-03-16T01:51:14.075Z,97958.79
2023-03-16T01:53:43.107Z,97960.70
2023-03-16T01:56:10.988Z,97964.16
2023-03-16T01:58:37.941Z,97961.17
2023-03-16T02:01:04.362Z,97969.34
2023-03-16T02:03:32.062Z,97971.23
2023-03-16T02:06:11.776Z,97970.90
2023-03-16T02:08:42.754Z,97970.41
2023-03-16T02:11:09.265Z,97975.70
2023-03-16T02:13:44.653Z,97977.41
2023-03-16T02:16:11.677Z,97983.91
2023-03-16T02:18:38.131Z,97982.76
2023-03-16T02:21:18.406Z,97986.16
2023-03-16T02:23:45.393Z,97989.24
2023-03-16T02:26:20.057Z,97991.48
2023-03-16T02:29:09.577Z,97995.93
2023-03-16T02:31:36.610Z,98000.56
2023-03-16T02:34:03.556Z,98002.98
2023-03-16T02:36:30.196Z,98003.36
2023-03-16T02:38:56.532Z,98005.41
2023-03-16T02:41:23.577Z,98008.65
2023-03-16T02:44:03.863Z,98010.20
2023-03-16T02:46:32.912Z,98011.89
2023-03-16T02:48:59.304Z,98015.47
2023-03-16T02:51:25.565Z,98019.19
2023-03-16T02:53:53.129Z,98020.90
2023-03-16T02:56:19.855Z,98024.96
2023-03-16T02:58:46.369Z,98031.93
2023-03-16T03:01:16.008Z,98032.61
2023-03-16T03:03:42.420Z,98038.73
2023-03-16T03:06:08.865Z,98040.27
2023-03-16T03:08:36.187Z,98048.41
2023-03-16T03:11:02.687Z,98051.50
2023-03-16T03:13:28.973Z,98055.43
2023-03-16T03:15:55.467Z,98056.13
2023-03-16T03:18:23.957Z,98056.50
2023-03-16T03:20:51.186Z,98057.73
2023-03-16T03:23:17.543Z,98060.96
2023-03-16T03:25:44.097Z,98063.36
2023-03-16T03:28:10.654Z,98063.39
2023-03-16T03:30:37.174Z,98064.61
2023-03-16T03:33:03.867Z,98066.32
2023-03-16T03:35:30.547Z,98075.80
2023-03-16T03:37:57.017Z,98077.84
2023-03-16T03:40:23.736Z,98082.23
2023-03-16T03:42:56.289Z,98082.95
2023-03-16T03:45:22.782Z,98082.48
2023-03-16T03:47:49.208Z,98084.34
2023-03-16T03:50:18.780Z,98085.71
2023-03-16T03:53:05.458Z,98087.45
2023-03-16T03:55:34.383Z,98083.75
2023-03-16T03:58:00.951Z,98082.39
2023-03-16T04:00:28.677Z,98089.19
2023-03-16T04:02:55.578Z,98092.61
2023-03-16T04:05:27.645Z,98092.64
2023-03-16T04:07:54.675Z,98092.16
2023-03-16T04:10:21.182Z,98091.34
2023-03-16T04:12:47.508Z,98088.31
2023-03-16T04:15:13.855Z,98091.72
2023-03-16T04:18:00.346Z,98095.46
2023-03-16T04:20:27.429Z,98095.97
2023-03-16T04:22:54.111Z,98098.51
2023-03-16T04:25:21.299Z,98099.70
2023-03-16T04:27:48.101Z,98102.09
2023-03-16T04:30:14.987Z,98104.66
2023-03-16T04:32:45.470Z,98106.20
2023-03-16T04:35:13.994Z,98111.33
2023-03-16T04:37:45.487Z,98110.15
2023-03-16T04:40:12.154Z,98114.58
2023-03-16T04:42:38.470Z,98116.61
2023-03-16T04:45:06.264Z,98114.10
2023-03-16T04:47:32.528Z,98116.68
2023-03-16T04:49:59.879Z,98121.26
2023-03-16T04:52:26.178Z,98127.69
2023-03-16T04:54:52.565Z,98132.42
2023-03-16T04:57:19.327Z,98131.27
2023-03-16T04:59:48.628Z,98137.41
2023-03-16T05:02:25.951Z,98133.16
2023-03-16T05:04:52.299Z,98133.83
2023-03-16T05:07:19.384Z,98134.64
2023-03-16T05:09:48.997Z,98137.66
2023-03-16T05:12:33.927Z,98139.80
2023-03-16T05:15:03.083Z,98138.05
2023-03-16T05:17:41.287Z,98138.83
2023-03-16T05:20:14.058Z,98139.61
2023-03-16T05:22:45.246Z,98140.35
2023-03-16T05:25:18.988Z,98140.92
2023-03-16T05:27:48.861Z,98145.42
2023-03-16T05:30:19.787Z,98150.96
2023-03-16T05:32:46.461Z,98152.39
2023-03-16T05:35:13.499Z,98151.73
2023-03-16T05:37:41.484Z,98151.23
2023-03-16T05:40:12.729Z,98151.61
2023-03-16T05:42:38.991Z,98155.55
2023-03-16T05:45:06.236Z,98158.27
2023-03-16T05:47:44.850Z,98160.62
2023-03-16T05:50:13.209Z,98163.36
2023-03-16T05:52:41.115Z,98164.40
2023-03-16T05:55:15.233Z,98169.48
2023-03-16T05:57:42.548Z,98178.13
2023-03-16T06:00:10.556Z,98178.84
2023-03-16T06:02:38.673Z,98181.44
2023-03-16T06:05:05.794Z,98186.80
2023-03-16T06:07:32.469Z,98186.52
2023-03-16T06:09:59.472Z,98187.81
2023-03-16T06:12:26.517Z,98185.19
2023-03-16T06:14:52.811Z,98187.30
2023-03-16T06:17:19.250Z,98185.02
2023-03-16T06:19:45.629Z,98188.85
2023-03-16T06:22:11.939Z,98190.20
2023-03-16T06:24:38.678Z,98195.61
2023-03-16T06:27:04.999Z,98195.89
2023-03-16T06:29:36.122Z,98196.35
2023-03-16T06:32:02.816Z,98198.20
2023-03-16T06:34:29.598Z,98198.28
2023-03-16T06:36:56.140Z,98200.39
2023-03-16T06:39:22.473Z,98198.10
2023-03-16T06:41:50.458Z,98200.24
2023-03-16T06:44:17.326Z,98204.51
2023-03-16T06:46:54.228Z,98207.52
2023-03-16T06:49:21.049Z,98208.95
2023-03-16T06:51:47.930Z,98206.85
2023-03-16T06:54:14.825Z,98209.91
2023-03-16T06:56:41.469Z,98214.92
2023-03-16T06:59:07.861Z,98218.69
2023-03-16T07:01:36.069Z,98221.16
2023-03-16T07:04:02.461Z,98223.81
2023-03-16T07:06:30.509Z,98229.27
2023-03-16T07:09:15.282Z,98231.92
2023-03-16T07:11:46.608Z,98232.52
2023-03-16T07:14:12.915Z,98232.13
2023-03-16T07:16:40.493Z,98235.27
2023-03-16T07:19:09.765Z,98237.77
2023-03-16T07:21:36.086Z,98239.48
2023-03-16T07:24:03.083Z,98241.88
2023-03-16T07:26:31.590Z,98236.05
2023-03-16T07:29:12.817Z,98239.29
2023-03-16T07:31:39.393Z,98241.90
2023-03-16T07:34:12.744Z,98243.70
2023-03-16T07:36:46.193Z,98248.33
2023-03-16T07:39:14.492Z,98251.73
2023-03-16T07:41:41.519Z,98251.92
2023-03-16T07:44:14.228Z,98254.50
2023-03-16T07:46:40.553Z,98256.34
2023-03-16T07:49:06.887Z,98257.73
2023-03-16T07:51:33.228Z,98260.86
2023-03-16T07:53:59.724Z,98259.45
2023-03-16T07:56:36.148Z,98255.05
2023-03-16T07:59:09.500Z,98257.41
2023-03-16T08:01:36.955Z,98257.66
2023-03-16T08:04:03.577Z,98261.96
2023-03-16T08:06:30.868Z,98256.70
2023-03-16T08:08:57.390Z,98259.67
2023-03-16T08:11:30.541Z,98261.55
2023-03-16T08:13:59.111Z,98264.14
2023-03-16T08:16:33.584Z,98265.92
2023-03-16T08:19:03.235Z,98263.50
2023-03-16T08:21:29.689Z,98264.09
2023-03-16T08:23:55.934Z,98264.31
2023-03-16T08:26:23.308Z,98264.89
2023-03-16T08:28:58.098Z,98263.73
2023-03-16T08:31:24.716Z,98268.95
2023-03-16T08:34:06.345Z,98268.35
2023-03-16T08:36:36.330Z,98267.14
2023-03-16T08:39:07.205Z,98263.55
2023-03-16T08:41:41.026Z,98267.45
2023-03-16T08:44:12.298Z,98264.86
2023-03-16T08:46:39.423Z,98262.73
2023-03-16T08:49:09.619Z,98265.84
2023-03-16T08:51:36.119Z,98270.80
2023-03-16T08:57:34.734Z,98278.05
2023-03-16T09:00:05.149Z,98282.60
2023-03-16T09:02:42.285Z,98286.40
2023-03-16T09:06:05.582Z,98282.30
2023-03-16T09:08:32.889Z,98284.20
2023-03-16T09:11:03.860Z,98283.66
2023-03-16T09:13:31.009Z,98291.98
2023-03-16T09:15:57.522Z,98292.13
2023-03-16T09:18:23.932Z,98291.72
2023-03-16T09:20:50.521Z,98284.02
2023-03-16T09:23:17.794Z,98283.96
2023-03-16T09:25:44.977Z,98281.71
2023-03-16T09:28:11.353Z,98282.38
2023-03-16T09:30:38.214Z,98283.86
2023-03-16T09:33:06.609Z,98288.02
2023-03-16T09:35:35.078Z,98293.59
2023-03-16T09:38:06.161Z,98291.58
2023-03-16T09:40:36.651Z,98293.73
2023-03-16T09:43:24.985Z,98296.41
2023-03-16T09:45:58.063Z,98291.42
2023-03-16T09:48:30.308Z,98296.84
2023-03-16T09:50:58.338Z,98294.43
2023-03-16T09:53:27.614Z,98302.55
2023-03-16T09:56:01.847Z,98302.33
2023-03-16T09:58:30.936Z,98304.93
2023-03-16T10:01:16.536Z,98304.48
2023-03-16T10:03:50.662Z,98301.28
2023-03-16T10:06:18.298Z,98293.91
2023-03-16T10:08:50.877Z,98292.41
2023-03-16T10:11:20.001Z,98299.13
2023-03-16T10:13:59.221Z,98304.05
2023-03-16T10:16:32.114Z,98302.96
2023-03-16T10:19:07.782Z,98300.91
2023-03-16T10:21:36.948Z,98308.19
2023-03-16T10:24:20.810Z,98314.71
2023-03-16T10:26:50.094Z,98315.58
2023-03-16T10:29:16.635Z,98313.69
2023-03-16T10:31:45.001Z,98309.94
2023-03-16T10:34:13.165Z,98306.91
2023-03-16T10:36:43.421Z,98306.55
2023-03-16T10:39:11.839Z,98306.13
2023-03-16T10:41:53.818Z,98312.99
2023-03-16T10:44:24.467Z,98315.72
2023-03-16T10:47:05.023Z,98319.48
2023-03-16T10:49:38.838Z,98321.34
2023-03-16T10:52:29.011Z,98324.98
2023-03-16T10:55:01.325Z,98325.86
2023-03-16T10:57:32.171Z,98326.17
2023-03-16T11:00:13.253Z,98319.63
2023-03-16T11:02:39.867Z,98316.80
2023-03-16T11:05:13.728Z,98312.53
2023-03-16T11:07:47.459Z,98309.06
2023-03-16T11:10:25.901Z,98307.54
2023-03-16T11:12:52.694Z,98307.49
2023-03-16T11:15:29.428Z,98312.92
2023-03-16T11:17:56.794Z,98318.19
2023-03-16T11:20:26.375Z,98319.81
2023-03-16T11:22:52.802Z,98317.40
2023-03-16T11:25:38.334Z,98317.70
2023-03-16T11:28:05.032Z,98315.85
2023-03-16T11:30:40.073Z,98315.13
2023-03-16T11:33:12.673Z,98316.39
2023-03-16T11:35:58.482Z,98315.42
2023-03-16T11:38:44.327Z,98315.76
2023-03-16T11:41:12.390Z,98312.59
2023-03-16T11:43:56.029Z,98306.11
2023-03-16T11:46:29.733Z,98303.70
2023-03-16T11:49:19.887Z,98298.83
2023-03-16T11:51:46.816Z,98296.52
2023-03-16T11:54:15.820Z,98296.77
2023-03-16T11:56:49.629Z,98292.83
2023-03-16T11:59:36.086Z,98297.13
2023-03-16T12:02:09.157Z,98299.19
2023-03-16T12:05:04.941Z,98298.95
2023-03-16T12:07:35.050Z,98304.46
2023-03-16T12:10:11.783Z,98298.52
2023-03-16T12:12:38.216Z,98293.05
2023-03-16T12:15:04.769Z,98296.67
2023-03-16T12:17:34.720Z,98296.81
2023-03-16T12:20:06.947Z,98295.73
2023-03-16T12:22:34.733Z,98298.85
2023-03-16T12:25:02.305Z,98300.02
2023-03-16T12:27:35.524Z,98296.84
2023-03-16T12:30:20.929Z,98286.47
2023-03-16T12:32:58.338Z,98277.65
2023-03-16T12:35:36.287Z,98281.42
2023-03-16T12:38:27.849Z,98275.69
2023-03-16T12:41:12.350Z,98278.89
2023-03-16T12:44:01.838Z,98283.63
2023-03-16T12:46:35.169Z,98287.27
2023-03-16T12:49:04.195Z,98290.89
2023-03-16T12:51:42.601Z,98293.13
2023-03-16T12:54:37.473Z,98293.42
2023-03-16T12:57:07.239Z,98299.98
2023-03-16T12:59:39.208Z,98294.90
2023-03-16T13:02:09.328Z,98296.83
2023-03-16T13:04:40.462Z,98296.30
2023-03-16T13:07:08.926Z,98300.91
2023-03-16T13:09:40.081Z,98301.23
2023-03-16T13:12:08.067Z,98302.33
2023-03-16T13:14:36.425Z,98307.89
2023-03-16T13:17:21.727Z,98304.09
2023-03-16T13:19:59.282Z,98308.48
2023-03-16T13:22:29.363Z,98304.63
2023-03-16T13:25:10.343Z,98306.21
2023-03-16T13:27:37.737Z,98302.77
2023-03-16T13:30:32.225Z,98298.95
2023-03-16T13:33:25.141Z,98293.09
2023-03-16T13:35:52.897Z,98290.41
2023-03-16T13:38:21.147Z,98295.84
2023-03-16T13:40:48.686Z,98293.09
2023-03-16T13:43:16.412Z,98294.47
2023-03-16T13:45:44.257Z,98285.20
2023-03-16T13:48:14.937Z,98292.06
2023-03-16T13:50:42.220Z,98294.59
2023-03-16T13:53:18.766Z,98298.95
2023-03-16T13:55:48.098Z,98300.52
2023-03-16T13:58:30.292Z,98301.92
2023-03-16T14:00:59.965Z,98302.25
2023-03-16T14:03:32.589Z,98299.10
2023-03-16T14:06:16.529Z,98299.16
2023-03-16T14:08:46.054Z,98302.59
2023-03-16T14:11:12.584Z,98302.46
2023-03-16T14:13:39.665Z,98304.41
2023-03-16T14:16:10.353Z,98307.32
2023-03-16T14:18:40.103Z,98307.21
2023-03-16T14:21:07.759Z,98304.30
2023-03-16T14:23:39.783Z,98304.52
2023-03-16T14:26:10.376Z,98303.59
2023-03-16T14:28:36.672Z,98307.38
2023-03-16T14:31:05.116Z,98301.35
2023-03-16T14:33:33.201Z,98301.04
2023-03-16T14:36:06.698Z,98301.08
2023-03-16T14:38:34.536Z,98307.08
2023-03-16T14:41:24.045Z,98305.46
2023-03-16T14:43:51.677Z,98305.60
2023-03-16T14:46:24.068Z,98308.21
2023-03-16T14:48:50.485Z,98309.64
2023-03-16T14:51:17.417Z,98314.33
2023-03-16T14:53:43.661Z,98310.18
2023-03-16T14:56:11.154Z,98315.60
2023-03-16T14:58:37.874Z,98319.67
2023-03-16T15:01:04.339Z,98317.90
2023-03-16T15:03:31.997Z,98320.27
2023-03-16T15:05:58.322Z,98323.52
2023-03-16T15:08:26.665Z,98325.62
2023-03-16T15:10:55.343Z,98318.27
2023-03-16T15:13:22.057Z,98321.64
2023-03-16T15:15:49.400Z,98322.69
2023-03-16T15:18:15.677Z,98322.77
2023-03-16T15:20:42.973Z,98322.50
2023-03-16T15:23:14.037Z,98320.52
2023-03-16T15:25:42.201Z,98321.24
2023-03-16T15:28:10.469Z,98319.75
2023-03-16T15:30:36.764Z,98321.60
2023-03-16T15:33:03.726Z,98320.83
2023-03-16T15:35:30.250Z,98320.17
2023-03-16T15:37:56.562Z,98319.36
2023-03-16T15:40:28.067Z,98318.70
2023-03-16T15:42:54.697Z,98324.23
2023-03-16T15:45:21.889Z,98326.04
2023-03-16T15:47:49.334Z,98326.88
2023-03-16T15:50:17.216Z,98325.67
2023-03-16T15:52:45.033Z,98327.86
2023-03-16T15:55:22.231Z,98331.05
2023-03-16T15:57:50.817Z,98331.27
2023-03-16T16:00:31.746Z,98334.19
2023-03-16T16:02:58.718Z,98333.27
2023-03-16T16:05:25.416Z,98335.23
2023-03-16T16:07:52.856Z,98340.71
2023-03-16T16:10:20.324Z,98339.23
2023-03-16T16:12:48.706Z,98339.30
2023-03-16T16:15:17.789Z,98340.04
2023-03-16T16:17:57.449Z,98342.65
2023-03-16T16:20:31.101Z,98340.84
2023-03-16T16:22:58.162Z,98343.64
2023-03-16T16:25:25.348Z,98343.67
2023-03-16T16:27:51.667Z,98351.29
2023-03-16T16:30:20.355Z,98352.95
2023-03-16T16:32:47.016Z,98357.23
2023-03-16T16:35:19.360Z,98356.83
2023-03-16T16:37:45.859Z,98359.90
2023-03-16T16:40:16.154Z,98358.17
2023-03-16T16:42:43.089Z,98359.30
2023-03-16T16:45:17.514Z,98363.86
2023-03-16T16:47:44.334Z,98370.10
2023-03-16T16:50:14.815Z,98370.39
2023-03-16T16:52:41.055Z,98372.00
2023-03-16T16:55:07.873Z,98370.70
2023-03-16T16:57:34.672Z,98375.75
2023-03-16T17:00:01.697Z,98377.51
2023-03-16T17:02:39.803Z,98380.96
2023-03-16T17:05:13.601Z,98382.54
2023-03-16T17:07:39.910Z,98382.41
2023-03-16T17:10:06.536Z,98380.71
2023-03-16T17:12:33.074Z,98380.71
2023-03-16T17:14:59.496Z,98380.73
2023-03-16T17:17:25.841Z,98385.16
2023-03-16T17:19:52.263Z,98386.90
2023-03-16T17:22:23.609Z,98386.56
2023-03-16T17:24:50.683Z,98390.34
2023-03-16T17:27:20.952Z,98388.65
2023-03-16T17:29:47.270Z,98388.66
2023-03-16T17:32:17.601Z,98388.48
2023-03-16T17:34:44.608Z,98389.52
2023-03-16T17:37:18.200Z,98393.45
2023-03-16T17:39:45.223Z,98389.05
2023-03-16T17:42:15.896Z,98391.95
2023-03-16T17:44:43.731Z,98394.51
2023-03-16T17:47:14.830Z,98395.37
2023-03-16T17:49:41.326Z,98392.86
2023-03-16T17:52:28.247Z,98392.54
2023-03-16T17:54:54.927Z,98397.81
2023-03-16T17:57:29.183Z,98397.57
2023-03-16T17:59:55.903Z,98397.52
2023-03-16T18:02:22.247Z,98399.33
2023-03-16T18:04:50.159Z,98396.34
2023-03-16T18:07:17.267Z,98396.33
2023-03-16T18:09:43.807Z,98396.72
2023-03-16T18:12:10.535Z,98399.50
2023-03-16T18:14:38.504Z,98400.14
2023-03-16T18:17:14.530Z,98404.50
2023-03-16T18:19:41.432Z,98408.50
2023-03-16T18:22:17.283Z,98410.35
2023-03-16T18:24:44.472Z,98415.46
2023-03-16T18:27:11.377Z,98417.63
2023-03-16T18:29:38.274Z,98422.66
2023-03-16T18:32:21.283Z,98427.20
2023-03-16T18:34:51.040Z,98433.02
2023-03-16T18:37:21.234Z,98432.23
2023-03-16T18:39:47.553Z,98437.10
2023-03-16T18:42:18.493Z,98437.57
2023-03-16T18:44:44.966Z,98436.66
2023-03-16T18:47:18.537Z,98435.04
2023-03-16T18:49:45.905Z,98435.27
2023-03-16T18:52:19.420Z,98432.79
2023-03-16T18:54:46.089Z,98431.66
2023-03-16T18:57:17.257Z,98435.44
2023-03-16T18:59:44.341Z,98441.77
2023-03-16T19:02:33.529Z,98439.64
2023-03-16T19:05:01.744Z,98439.77
2023-03-16T19:07:31.998Z,98444.27
2023-03-16T19:10:00.202Z,98444.92
2023-03-16T19:12:26.761Z,98444.42
2023-03-16T19:14:53.287Z,98444.36
2023-03-16T19:17:19.831Z,98448.86
2023-03-16T19:19:47.780Z,98446.91
2023-03-16T19:22:19.693Z,98446.90
2023-03-16T19:24:54.787Z,98453.67
2023-03-16T19:27:33.203Z,98456.11
2023-03-16T19:29:59.616Z,98456.52
2023-03-16T19:32:26.750Z,98455.24
2023-03-16T19:34:53.374Z,98460.77
2023-03-16T19:37:19.903Z,98468.16
2023-03-16T19:39:46.457Z,98470.58
2023-03-16T19:42:20.830Z,98469.27
2023-03-16T19:44:48.647Z,98474.73
2023-03-16T19:47:22.821Z,98467.58
2023-03-16T19:49:49.217Z,98466.38
2023-03-16T19:52:15.623Z,98469.09
2023-03-16T19:54:42.014Z,98470.62
2023-03-16T19:57:13.409Z,98476.91
2023-03-16T19:59:40.132Z,98478.11
2023-03-16T20:02:25.516Z,98478.48
2023-03-16T20:04:52.465Z,98483.58
2023-03-16T20:07:18.777Z,98485.27
2023-03-16T20:09:45.220Z,98485.84
2023-03-16T20:12:25.363Z,98488.96
2023-03-16T20:14:52.528Z,98486.79
2023-03-16T20:17:23.202Z,98487.64
2023-03-16T20:19:52.326Z,98484.09
2023-03-16T20:22:20.142Z,98483.27
2023-03-16T20:24:46.687Z,98483.48
2023-03-16T20:27:13.433Z,98487.75
2023-03-16T20:29:40.130Z,98491.17
2023-03-16T20:32:13.457Z,98488.80
2023-03-16T20:34:39.882Z,98483.86
2023-03-16T20:37:35.952Z,98482.71
2023-03-16T20:40:02.469Z,98484.31
2023-03-16T20:42:29.890Z,98485.23
2023-03-16T20:44:56.344Z,98479.67
2023-03-16T20:47:23.614Z,98480.42
2023-03-16T20:49:50.929Z,98479.94
2023-03-16T20:52:22.724Z,98478.61
2023-03-16T20:54:49.547Z,98478.45
2023-03-16T20:57:18.229Z,98480.17
2023-03-16T20:59:44.735Z,98482.73
2023-03-16T21:02:22.255Z,98483.13
2023-03-16T21:04:48.976Z,98487.27
2023-03-16T21:07:15.376Z,98486.61
2023-03-16T21:09:47.453Z,98487.12
2023-03-16T21:12:22.305Z,98487.95
2023-03-16T21:14:48.872Z,98482.87
2023-03-16T21:17:19.778Z,98487.28
2023-03-16T21:19:46.421Z,98486.98
2023-03-16T21:22:30.076Z,98489.37
2023-03-16T21:24:56.969Z,98492.97
2023-03-16T21:27:24.557Z,98488.39
2023-03-16T21:29:52.273Z,98485.38
2023-03-16T21:32:19.915Z,98482.55
2023-03-16T21:34:46.229Z,98482.27
2023-03-16T21:37:13.293Z,98483.64
2023-03-16T21:39:39.727Z,98488.05
2023-03-16T21:42:06.053Z,98488.41
2023-03-16T21:44:32.529Z,98491.65
2023-03-16T21:46:59.403Z,98494.02
2023-03-16T21:49:25.845Z,98494.54
2023-03-16T21:51:52.315Z,98500.64
2023-03-16T21:54:19.005Z,98502.02
2023-03-16T21:56:46.234Z,98504.55
2023-03-16T21:59:12.671Z,98505.05
2023-03-16T22:01:50.656Z,98500.80
2023-03-16T22:04:25.001Z,98495.40
2023-03-16T22:06:51.553Z,98495.91
2023-03-16T22:09:19.090Z,98495.06
2023-03-16T22:11:45.608Z,98494.53
2023-03-16T22:14:12.001Z,98489.27
2023-03-16T22:16:39.117Z,98485.89
2023-03-16T22:19:09.454Z,98483.52
2023-03-16T22:21:40.662Z,98481.49
2023-03-16T22:24:13.141Z,98483.73
2023-03-16T22:26:39.540Z,98485.29
2023-03-16T22:29:18.094Z,98483.13
2023-03-16T22:31:45.265Z,98478.59
2023-03-16T22:34:21.631Z,98473.52
2023-03-16T22:36:49.543Z,98472.69
2023-03-16T22:39:15.849Z,98472.38
2023-03-16T22:41:42.248Z,98467.29
2023-03-16T22:44:16.425Z,98465.08
2023-03-16T22:46:42.820Z,98459.37
2023-03-16T22:49:18.357Z,98466.19
2023-03-16T22:51:44.853Z,98467.45
2023-03-16T22:54:14.873Z,98465.63
2023-03-16T22:56:42.163Z,98461.08
2023-03-16T22:59:12.827Z,98460.77
2023-03-16T23:01:43.309Z,98463.53
2023-03-16T23:04:23.249Z,98464.95
2023-03-16T23:06:51.330Z,98467.88
2023-03-16T23:09:18.688Z,98461.84
2023-03-16T23:11:46.487Z,98466.79
2023-03-16T23:14:18.718Z,98468.17
2023-03-16T23:16:45.550Z,98466.15
2023-03-16T23:19:24.251Z,98462.25
2023-03-16T23:21:52.429Z,98460.73
2023-03-16T23:24:18.819Z,98458.02
2023-03-16T23:26:45.448Z,98460.91
2023-03-16T23:29:12.546Z,98462.61
2023-03-16T23:31:39.184Z,98464.81
2023-03-16T23:34:10.121Z,98463.81
2023-03-16T23:36:36.519Z,98462.64
2023-03-16T23:39:02.951Z,98469.75
2023-03-16T23:41:29.508Z,98470.09
2023-03-16T23:43:57.076Z,98469.76
2023-03-16T23:46:24.552Z,98468.73
2023-03-16T23:48:52.104Z,98468.55
2023-03-16T23:51:29.289Z,98473.78
2023-03-16T23:53:55.896Z,98476.98
2023-03-16T23:56:22.810Z,98474.12
2023-03-16T23:58:49.151Z,98477.50
